Latest Weather Observations for Stenhouse Bay

IDS60801

Issued at 8:31 pm CST Friday 6 May 2016 (issued every 30 minutes, with the page automatically refreshed every 10 minutes)

About weather observations | Map of weather stations | Latest weather observations for SA | Other Formats
Station Details ID: 022049 Name: STENHOUSE BAY Lat: -35.28 Lon: 136.94 Height: 42.0 m
Data from the previous 72 hours. | See also: Recent months at Stenhouse Bay
Date/Time
CST
Temp
°C
App
Temp
°C
Dew
Point
Rel
Hum
%
Delta-T
°C
Wind Press
QNH
hPa
Press
MSL
hPa
Rain
since 9 am
mm
Dir
 
Spd
km/h
Gust
km/h
Spd
kts
Gust
kts
06/08:30pm 15.7 14.0 12.3 80 1.9 S 13 17 7 9 1014.1 1014.0 0.0
06/08:00pm 15.6 13.5 12.5 82 1.7 SSE 15 17 8 9 1014.2 1014.1 0.0
06/07:30pm 15.6 13.9 12.5 82 1.7 S 13 17 7 9 1014.3 1014.2 0.0
06/07:00pm 15.5 13.4 12.3 81 1.8 S 15 17 8 9 1014.0 1013.9 0.0
06/06:30pm 15.4 14.0 12.2 81 1.7 SSE 11 13 6 7 1013.9 1013.8 0.0
06/06:00pm 15.3 14.6 11.9 80 1.8 SSE 7 9 4 5 1013.8 1013.7 0.0
06/05:30pm 15.8 14.7 12.0 78 2.1 SSE 9 13 5 7 1013.6 1013.5 0.0
06/05:00pm 16.5 15.8 12.1 75 2.4 SSE 7 9 4 5 1013.7 1013.6 0.0
06/04:30pm 17.2 16.5 12.1 72 2.8 SSE 7 9 4 5 1013.6 1013.5 0.0
06/04:00pm 17.6 17.0 12.3 71 2.9 SSE 7 11 4 6 1013.8 1013.7 0.0
06/03:30pm 17.9 17.0 12.6 71 3.0 S 9 11 5 6 1013.8 1013.7 0.0
06/03:00pm 17.5 16.5 12.2 71 2.9 S 9 13 5 7 1013.7 1013.6 0.0
06/02:30pm 18.8 18.1 13.2 70 3.2 S 9 13 5 7 1013.9 1013.8 0.0
06/02:00pm 18.1 17.3 13.0 72 2.9 SSE 9 11 5 6 1013.9 1013.8 0.0
06/01:30pm 17.7 16.7 12.4 71 2.9 SSE 9 11 5 6 1014.1 1014.0 0.0
06/01:00pm 18.5 17.9 13.6 73 2.8 S 9 13 5 7 1014.2 1014.1 0.0
06/12:30pm 17.7 16.6 13.0 74 2.6 S 11 15 6 8 1014.6 1014.5 0.0
06/12:00pm 17.5 16.0 13.2 76 2.4 SSE 13 17 7 9 1014.9 1014.8 0.0
06/11:30am 18.4 17.5 13.7 74 2.7 S 11 13 6 7 1015.4 1015.3 0.0
06/11:00am 17.8 17.3 13.9 78 2.2 SSW 9 13 5 7 1015.6 1015.5 0.0
06/10:30am 17.5 17.0 13.8 79 2.1 SW 9 13 5 7 1015.8 1015.7 0.0
06/10:00am 17.7 17.9 14.2 80 2.0 S 6 7 3 4 1015.8 1015.7 0.0
06/09:30am 17.3 17.5 14.2 82 1.8 S 6 7 3 4 1015.7 1015.6 0.0
06/09:00am 16.4 16.4 14.1 86 1.3 S 7 9 4 5 1015.6 1015.5 0.0
06/08:30am 17.1 17.2 14.4 84 1.5 SSW 7 11 4 6 1015.2 1015.1 0.0
06/08:00am 16.4 16.6 14.6 89 1.0 SSW 7 11 4 6 1014.8 1014.7 0.0
06/07:30am 15.8 15.5 14.3 91 0.9 SW 9 13 5 7 1014.4 1014.3 0.0
06/07:00am 16.0 15.4 14.5 91 0.9 SSW 11 17 6 9 1014.2 1014.1 0.0
06/06:30am 15.8 14.5 14.8 94 0.6 SSW 15 20 8 11 1014.0 1013.9 0.0
06/06:00am 15.9 15.4 15.9 100 0.0 SSW 13 20 7 11 1013.8 1013.7 0.0
06/05:30am 15.9 15.4 15.9 100 0.0 SSW 13 19 7 10 1013.5 1013.4 0.0
06/05:00am 15.9 15.8 15.9 100 0.0 SSW 11 17 6 9 1013.2 1013.1 0.0
06/04:30am 16.2 15.0 16.2 100 0.0 SW 17 24 9 13 1012.9 1012.8 0.0
06/04:00am 16.3 16.7 16.3 100 0.0 SW 9 13 5 7 1012.9 1012.8 0.0
06/03:30am 15.7 15.9 15.7 100 0.0 WSW 9 13 5 7 1012.8 1012.7 0.0
06/03:00am 15.4 15.1 15.4 100 0.0 W 11 11 6 6 1012.7 1012.6 0.0
06/02:30am 15.4 15.8 15.4 100 0.0 WNW 7 7 4 4 1012.7 1012.6 0.0
06/02:00am 15.6 15.4 15.6 100 0.0 WSW 11 13 6 7 1012.6 1012.5 0.0
06/01:30am 15.4 15.8 15.4 100 0.0 WSW 7 7 4 4 1012.6 1012.5 0.0
06/01:00am 16.2 16.2 16.2 100 0.0 WSW 11 13 6 7 1012.5 1012.4 0.0
06/12:30am 16.3 16.7 16.3 100 0.0 WSW 9 13 5 7 1012.3 1012.2 0.0
06/12:00am 16.1 16.4 16.1 100 0.0 W 9 11 5 6 1012.2 1012.1 0.0
 
Date/Time
CST
Temp
°C
App
Temp
°C
Dew
Point
Rel
Hum
%
Delta-T
°C
Wind Press
QNH
hPa
Press
MSL
hPa
Rain
since 9 am
mm
Dir
 
Spd
km/h
Gust
km/h
Spd
kts
Gust
kts
05/11:30pm 16.1 17.0 16.1 100 0.0 WNW 6 7 3 4 1012.2 1012.1 0.0
05/11:00pm 16.6 16.7 16.6 100 0.0 W 11 15 6 8 1011.9 1011.8 0.0
05/10:30pm 16.9 17.1 16.7 99 0.1 W 11 15 6 8 1011.9 1011.8 0.0
05/10:00pm 16.9 17.2 16.1 95 0.5 WNW 9 13 5 7 1011.9 1011.8 0.0
05/09:30pm 17.4 16.1 15.9 91 0.9 W 17 20 9 11 1011.6 1011.5 0.0
05/09:00pm 17.4 16.3 15.2 87 1.3 W 15 19 8 10 1011.4 1011.3 0.0
05/08:30pm 17.3 16.0 14.8 85 1.4 WNW 15 19 8 10 1011.2 1011.1 0.0
05/08:00pm 17.4 16.4 14.7 84 1.6 WNW 13 19 7 10 1011.2 1011.1 0.0
05/07:30pm 17.3 16.8 14.8 85 1.4 WNW 11 15 6 8 1011.1 1011.0 0.0
05/07:00pm 17.5 17.7 14.6 83 1.7 NW 7 9 4 5 1011.0 1010.9 0.0
05/06:30pm 18.1 17.5 14.6 80 2.0 NW 11 15 6 8 1010.6 1010.5 0.0
05/06:00pm 18.7 18.0 14.4 76 2.5 NNW 11 15 6 8 1010.1 1010.0 0.0
05/05:30pm 20.1 18.8 13.8 67 3.6 NNW 13 20 7 11 1009.9 1009.8 0.0
05/05:00pm 21.7 19.4 14.1 62 4.4 NNW 19 30 10 16 1009.7 1009.6 0.0
05/04:30pm 22.8 19.8 13.8 57 5.3 NNW 22 30 12 16 1009.7 1009.6 0.0
05/04:00pm 23.5 20.1 13.7 54 5.7 NNW 24 33 13 18 1009.8 1009.7 0.0
05/03:30pm 24.2 20.5 14.0 53 6.0 NNW 26 35 14 19 1009.9 1009.8 0.0
05/03:00pm 23.8 19.3 13.9 54 5.8 NNW 30 39 16 21 1009.8 1009.7 0.0
05/02:30pm 24.0 19.7 14.4 55 5.7 NNW 30 41 16 22 1010.1 1010.0 0.0
05/02:00pm 23.4 18.6 14.1 56 5.5 NNW 32 43 17 23 1010.2 1010.1 0.0
05/01:30pm 22.8 17.6 14.4 59 5.0 NNW 35 52 19 28 1010.3 1010.2 0.0
05/01:00pm 22.1 17.3 14.5 62 4.5 NNW 33 44 18 24 1010.7 1010.6 0.0
05/12:30pm 22.0 17.4 14.6 63 4.4 NNW 32 43 17 23 1010.9 1010.8 0.0
05/12:19pm 21.7 17.1 14.6 64 4.2 NNW 32 52 17 28 1011.2 1011.1 0.0
05/12:00pm 22.0 17.9 14.9 64 4.2 NNW 30 44 16 24 1011.5 1011.4 0.0
05/11:30am 21.4 16.6 14.6 65 4.0 NNW 33 46 18 25 1011.9 1011.8 0.0
05/11:00am 21.4 17.3 14.8 66 3.9 NNW 30 46 16 25 1012.2 1012.1 0.0
05/10:30am 20.6 16.1 14.9 70 3.4 NNW 32 46 17 25 1012.7 1012.6 0.0
05/10:00am 20.0 14.8 14.4 70 3.3 NNW 35 48 19 26 1012.9 1012.8 0.0
05/09:30am 19.6 15.3 14.4 72 3.0 NNW 30 44 16 24 1013.1 1013.0 0.0
05/09:00am 19.2 15.4 14.7 75 2.6 NNW 28 43 15 23 1013.2 1013.1 0.2
05/08:30am 18.4 15.3 14.5 78 2.3 NNW 24 35 13 19 1013.1 1013.0 0.2
05/08:00am 17.5 14.9 15.0 85 1.5 NNW 22 30 12 16 1012.9 1012.8 0.2
05/07:30am 16.6 13.2 14.8 89 1.0 NNW 26 35 14 19 1012.9 1012.8 0.2
05/07:00am 16.0 13.1 15.2 95 0.5 NNW 24 33 13 18 1012.7 1012.6 0.2
05/06:30am 16.1 13.6 15.1 94 0.6 NNW 22 30 12 16 1012.7 1012.6 0.2
05/06:00am 15.8 13.1 14.5 92 0.7 NNW 22 30 12 16 1012.6 1012.5 0.2
05/05:30am 15.7 12.9 15.4 98 0.2 NNW 24 32 13 17 1012.4 1012.3 0.2
05/05:00am 15.5 13.4 15.3 99 0.1 NNW 20 28 11 15 1012.3 1012.2 0.2
05/04:30am 15.5 13.4 15.3 99 0.1 NNW 20 28 11 15 1012.3 1012.2 0.2
05/04:00am 15.7 13.2 15.2 97 0.3 NNW 22 32 12 17 1012.4 1012.3 0.2
05/03:30am 16.1 13.5 15.0 93 0.6 NNW 22 30 12 16 1012.6 1012.5 0.2
05/03:00am 16.4 12.9 14.6 89 1.0 NNW 26 35 14 19 1012.8 1012.7 0.2
05/02:30am 16.6 13.7 15.1 91 0.9 NNW 24 32 13 17 1013.0 1012.9 0.2
05/02:00am 16.4 13.2 15.3 93 0.6 NNW 26 35 14 19 1013.2 1013.1 0.2
05/01:30am 16.6 13.7 15.1 91 0.9 NNW 24 37 13 20 1013.3 1013.2 0.2
05/01:00am 16.8 13.6 15.3 91 0.9 NW 26 37 14 20 1013.7 1013.6 0.2
05/12:30am 16.6 13.5 15.5 93 0.6 NNW 26 39 14 21 1013.8 1013.7 0.2
05/12:00am 16.5 13.3 15.4 93 0.6 NNW 26 35 14 19 1013.9 1013.8 0.2
 
Date/Time
CST
Temp
°C
App
Temp
°C
Dew
Point
Rel
Hum
%
Delta-T
°C
Wind Press
QNH
hPa
Press
MSL
hPa
Rain
since 9 am
mm
Dir
 
Spd
km/h
Gust
km/h
Spd
kts
Gust
kts
04/11:30pm 16.1 13.3 15.3 95 0.5 NNW 24 35 13 19 1013.9 1013.8 0.2
04/11:00pm 16.2 14.2 15.4 95 0.5 NNW 20 32 11 17 1014.4 1014.3 0.2
04/10:30pm 16.0 15.0 15.5 97 0.3 NNW 15 19 8 10 1014.7 1014.6 0.2
04/10:00pm 16.1 13.7 15.3 95 0.5 NNW 22 32 12 17 1014.7 1014.6 0.2
04/09:30pm 15.8 13.8 15.0 95 0.5 NW 19 26 10 14 1014.8 1014.7 0.2
04/09:00pm 15.9 13.5 15.3 96 0.3 NW 22 30 12 16 1014.7 1014.6 0.2
04/08:30pm 16.4 14.3 14.8 90 0.9 NW 19 28 10 15 1014.6 1014.5 0.2
04/08:00pm 16.4 13.9 14.2 87 1.3 NW 20 32 11 17 1014.6 1014.5 0.2
04/07:30pm 16.4 14.0 13.9 85 1.4 NW 19 26 10 14 1014.6 1014.5 0.2
04/07:00pm 16.8 13.0 13.7 82 1.8 NW 26 35 14 19 1014.5 1014.4 0.2
04/06:30pm 16.9 14.4 14.0 83 1.7 NW 20 30 11 16 1014.3 1014.2 0.2
04/06:00pm 16.6 14.7 14.1 85 1.4 NW 17 24 9 13 1014.0 1013.9 0.2
04/05:30pm 16.5 15.1 14.5 88 1.1 NW 15 20 8 11 1014.0 1013.9 0.2
04/05:00pm 16.7 13.9 14.2 85 1.4 NNW 22 32 12 17 1013.9 1013.8 0.2
04/04:30pm 17.0 14.1 14.1 83 1.7 NNW 22 32 12 17 1013.8 1013.7 0.2
04/04:00pm 17.8 14.4 14.7 82 1.8 NNW 26 35 14 19 1013.8 1013.7 0.2
04/03:30pm 17.8 14.1 13.9 78 2.2 NNW 26 41 14 22 1013.7 1013.6 0.2
04/03:00pm 17.1 13.2 13.4 79 2.1 NNW 26 37 14 20 1013.9 1013.8 0.2
04/02:30pm 17.3 12.9 13.0 76 2.4 NNW 28 39 15 21 1014.0 1013.9 0.2
04/02:00pm 17.4 13.8 13.1 76 2.4 NW 24 35 13 19 1014.3 1014.2 0.2
04/01:30pm 17.5 14.3 13.0 75 2.5 NNW 22 32 12 17 1014.6 1014.5 0.2
04/01:00pm 17.4 14.2 13.1 76 2.4 NW 22 32 12 17 1014.9 1014.8 0.2
04/12:30pm 17.3 14.3 12.4 73 2.7 NW 20 32 11 17 1015.2 1015.1 0.2
04/12:00pm 18.1 13.9 12.3 69 3.2 NW 26 39 14 21 1015.6 1015.5 0.2
04/11:30am 17.6 13.7 12.1 70 3.0 NW 24 35 13 19 1015.9 1015.8 0.2
04/11:00am 17.1 14.1 12.4 74 2.6 NW 20 26 11 14 1016.2 1016.1 0.2
04/10:30am 16.6 13.4 12.0 74 2.5 NW 20 33 11 18 1016.3 1016.3 0.2
04/10:00am 14.8 13.1 13.7 93 0.6 WNW 15 22 8 12 1016.3 1016.3 0.2
04/09:30am 14.6 12.5 13.6 94 0.6 WNW 17 35 9 19 1016.2 1016.1 0.2
04/09:00am 15.9 11.9 11.7 76 2.3 NW 24 32 13 17 1016.1 1016.0 4.0
04/08:30am 15.4 14.4 12.2 81 1.7 NW 9 13 5 7 1015.9 1015.8 4.0
04/08:00am 14.6 12.5 11.0 79 1.9 NW 13 19 7 10 1015.6 1015.5 4.0
04/07:30am 14.1 12.1 10.3 78 2.0 WNW 11 15 6 8 1015.3 1015.2 4.0
04/07:00am 13.8 12.5 9.8 77 2.1 WNW 7 9 4 5 1015.0 1014.9 4.0
04/06:30am 14.0 12.3 9.8 76 2.2 W 9 13 5 7 1014.7 1014.6 4.0
04/06:00am 14.1 12.8 9.9 76 2.2 W 7 13 4 7 1014.4 1014.3 4.0
04/05:30am 14.0 12.0 10.0 77 2.1 W 11 13 6 7 1014.2 1014.1 4.0
04/05:00am 13.9 11.1 10.1 78 2.0 WSW 15 20 8 11 1014.0 1013.9 4.0
04/04:30am 13.4 11.2 10.8 84 1.4 W 13 20 7 11 1013.9 1013.8 4.0
04/04:00am 13.4 10.7 10.4 82 1.6 WSW 15 20 8 11 1013.7 1013.6 4.0
04/03:30am 13.8 10.4 10.6 81 1.7 WSW 19 28 10 15 1013.7 1013.6 4.0
04/03:00am 14.4 11.0 10.6 78 2.0 WSW 19 28 10 15 1013.7 1013.6 4.0
04/02:30am 14.3 10.9 10.5 78 2.0 WSW 19 33 10 18 1013.7 1013.6 4.0
04/02:00am 14.0 10.7 10.8 81 1.7 WSW 19 30 10 16 1013.6 1013.5 4.0
04/01:30am 14.2 10.4 11.2 82 1.6 WSW 22 30 12 16 1013.5 1013.4 4.0
04/01:00am 13.7 10.0 11.4 86 1.2 WSW 22 32 12 17 1013.5 1013.4 4.0
04/12:30am 14.2 10.1 11.5 84 1.4 WSW 24 32 13 17 1013.4 1013.3 4.0
04/12:00am 14.1 9.6 11.4 84 1.4 WSW 26 35 14 19 1013.5 1013.4 4.0
 
Date/Time
CST
Temp
°C
App
Temp
°C
Dew
Point
Rel
Hum
%
Delta-T
°C
Wind Press
QNH
hPa
Press
MSL
hPa
Rain
since 9 am
mm
Dir
 
Spd
km/h
Gust
km/h
Spd
kts
Gust
kts
03/11:30pm 13.9 9.7 12.5 91 0.8 SW 26 35 14 19 1013.4 1013.3 4.0
03/11:00pm 14.4 9.7 11.9 85 1.3 WSW 28 39 15 21 1013.3 1013.2 4.0
03/10:30pm 14.1 10.7 11.3 83 1.5 WSW 20 30 11 16 1013.2 1013.1 4.0
03/10:00pm 13.9 10.1 11.1 83 1.5 WSW 22 37 12 20 1013.1 1013.0 4.0
03/09:30pm 14.6 10.1 11.4 81 1.7 WSW 26 33 14 18 1013.1 1013.0 4.0
03/09:00pm 14.0 9.0 12.2 89 1.0 WSW 30 39 16 21 1012.9 1012.8 4.0

Other Formats:

Comma delimited format used in spreadsheet applications
http://www.bom.gov.au/fwo/IDS60801/IDS60801.95806.axf

JavaScript Object Notation format (JSON) in row-major order
http://www.bom.gov.au/fwo/IDS60801/IDS60801.95806.json